| Date | Time | Temp. (oF) | Dew Point (oF) | Rel. Hum. (%) | Press. (in.) | Wind Dir. | Wind Speed (mph) | Hourly Rainfall (in.) |
|
|---|---|---|---|---|---|---|---|---|---|
| 1 | 05/23 | 00:00 | 62 | 61 | 98 | 29.77 | NE | 4 | 0.00 |
| 2 | 05/22 | 23:00 | 63 | 63 | 100 | 29.74 | NE | 5 | 0.04 |
| 3 | 05/22 | 22:00 | 64 | 63 | 99 | 29.78 | E | 7 | 0.11 |
| 4 | 05/22 | 21:00 | 65 | 63 | 96 | 29.76 | SE | 5 | 0.02 |
| 5 | 05/22 | 20:00 | 67 | 65 | 96 | 29.73 | NNE | 11 | 0.01 |
| 6 | 05/22 | 19:00 | 69 | 66 | 93 | 29.75 | NNE | 6 | 0.01 |
| 7 | 05/22 | 18:00 | 72 | 67 | 86 | 29.75 | ENE | 3 | 0.00 |
| 8 | 05/22 | 17:00 | 74 | 65 | 76 | 29.73 | NNE | 5 | 0.00 |
| 9 | 05/22 | 16:00 | 75 | 66 | 74 | 29.72 | E | 3 | 0.00 |
| 10 | 05/22 | 15:00 | 74 | 66 | 77 | 29.77 | NNE | 1 | 0.00 |
| 11 | 05/22 | 14:00 | 71 | 64 | 81 | 29.79 | NW | 3 | 0.00 |
| 12 | 05/22 | 13:00 | 70 | 64 | 82 | 29.81 | W | 5 | 0.00 |
| 13 | 05/22 | 12:00 | 69 | 64 | 86 | 29.83 | SW | 4 | 0.00 |
| 14 | 05/22 | 11:00 | 67 | 63 | 89 | 29.82 | S | 1 | 0.00 |
| 15 | 05/22 | 10:00 | 64 | 62 | 96 | 29.82 | W | 1 | 0.00 |
| 16 | 05/22 | 09:00 | 61 | 60 | 100 | 29.84 | S | 2 | 0.00 |
| 17 | 05/22 | 08:00 | 60 | 59 | 100 | 29.82 | NNW | 0 | 0.00 |
| 18 | 05/22 | 07:00 | 59 | 59 | 100 | 29.80 | SW | 0 | 0.00 |
| 19 | 05/22 | 06:00 | 59 | 59 | 100 | 29.80 | NW | 1 | 0.01 |
| 20 | 05/22 | 05:00 | 59 | 59 | 100 | 29.79 | WNW | 4 | 0.05 |
| 21 | 05/22 | 04:00 | 59 | 59 | 100 | 29.79 | E | 2 | 0.00 |
| 22 | 05/22 | 03:00 | 58 | 58 | 100 | 29.81 | ENE | 3 | 0.00 |
| 23 | 05/22 | 02:00 | 58 | 58 | 100 | 29.84 | ENE | 4 | 0.00 |
| 24 | 05/22 | 01:00 | 58 | 58 | 100 | 29.88 | NE | 3 | 0.00 |